Flight Track Log - Related Links

Times and Time Zones

All times are in EDT time to prevent confusion due to time zone crossing. See the CPZ5718 flight status page for this flight to view local times or setup timezone preferences in your user account.

Time Position Orientation Groundspeed Altitude Reporting Facility
EDT Latitude Longitude Course Direction KTS MPH feet Rate Location/Type
Fri 06:48:05 AM 42.7278 -73.8081 223° Southwest 146 168 1,300  Level Boston Center
Fri 06:48:42 AM 42.7028 -73.8047 174° South 148 170 2,200 1,608 Climbing Boston Center
Fri 06:49:42 AM 42.7106 -73.8586 281° West 227 261 3,900 1,806 Climbing Boston Center
Fri 06:50:00 AM 42.7333 -74.2370 270° West  Level FlightAware Approximate
Fri 06:50:25 AM 42.7475 -73.8847 333° Northwest 275 316 5,300  Level Boston Center
Fri 06:51:00 AM 42.6927 -74.3603 220° Southwest  Level FlightAware Approximate
Fri 06:51:25 AM 42.8117 -73.9372 329° Northwest 281 323 7,600  Level Boston Center
Fri 06:52:00 AM 42.6103 -74.4530 220° Southwest  Level FlightAware Approximate
Fri 06:52:25 AM 42.7875 -74.0217 249° West 206 237 10,000  Level Boston Center
Fri 06:53:00 AM 42.5304 -74.5495 223° Southwest  Level FlightAware Approximate
Fri 06:53:25 AM 42.7383 -74.1022 230° Southwest 223 257 11,900  Level Boston Center
Fri 06:54:25 AM 42.6847 -74.1997 233° Southwest 289 333 13,900 1,850 Climbing Boston Center
Fri 06:55:25 AM 42.6375 -74.2886 234° Southwest 322 371 15,600 1,700 Climbing Boston Center
Fri 06:56:25 AM 42.5753 -74.3997 233° Southwest 341 392 17,300 1,650 Climbing Boston Center
Fri 06:57:25 AM 42.5300 -74.4828 234° Southwest 341 392 18,900 1,650 Climbing Boston Center
Fri 06:58:25 AM 42.4653 -74.6072 235° Southwest 358 412 20,600 1,550 Climbing Boston Center
Fri 06:59:25 AM 42.4025 -74.7147 232° Southwest 364 419 22,000 1,400 Climbing Boston Center
Fri 07:00:25 AM 42.3397 -74.8278 233° Southwest 375 432 23,400 1,300 Climbing Boston Center
Fri 07:01:25 AM 42.2725 -74.9486 233° Southwest 388 447 24,600 1,206 Climbing Boston Center
Fri 07:03:49 AM 42.1056 -75.2433 233° Southwest 400 460 27,500 1,083 Climbing New York Center
Fri 07:04:50 AM 42.0425 -75.3703 236° Southwest 411 473 28,300 756 Climbing New York Center
Fri 07:05:48 AM 41.9850 -75.5086 241° Southwest 419 482 29,000 407 Climbing New York Center
Fri 07:06:48 AM 41.9275 -75.6439 240° Southwest 424 488 29,100 496 Climbing New York Center
Fri 07:07:49 AM 41.8717 -75.7817 241° Southwest 424 488 30,000 689 Climbing New York Center
Fri 07:08:50 AM 41.8139 -75.9192 241° Southwest 424 488 30,500 857 Climbing New York Center
Fri 07:09:48 AM 41.7558 -76.0567 241° Southwest 424 488 31,700 1,017 Climbing New York Center
Fri 07:10:48 AM 41.6994 -76.1939 241° Southwest 424 488 32,500 744 Climbing New York Center
Fri 07:11:49 AM 41.6433 -76.3308 241° Southwest 424 488 33,200 645 Climbing New York Center
Fri 07:12:49 AM 41.5847 -76.4675 240° Southwest 429 494 33,800 793 Climbing New York Center
Fri 07:13:50 AM 41.5331 -76.5878 240° Southwest 429 494 34,800 893 Climbing New York Center
Fri 07:14:50 AM 41.4764 -76.7214 241° Southwest 424 488 35,600 555 Climbing New York Center
Fri 07:15:49 AM 41.4200 -76.8492 240° Southwest 413 475 35,900 200 Climbing New York Center
Fri 07:16:50 AM 41.3633 -76.9767 239° Southwest 407 468 36,000 50 Climbing New York Center
Fri 07:17:48 AM 41.3064 -77.1097 240° Southwest 407 468 36,000  Level New York Center
Fri 07:18:48 AM 41.2472 -77.2422 239° Southwest 407 468 36,000  Level New York Center
Fri 07:19:48 AM 41.2244 -77.3889 258° West 406 467 36,000  Level New York Center
Fri 07:21:32 AM 41.2372 -77.6781 273° West 427 491 36,000  Level Cleveland Center
Fri 07:22:32 AM 41.2450 -77.8186 274° West 433 498 36,000  Level Cleveland Center
Fri 07:23:32 AM 41.2508 -77.9758 273° West 433 498 36,000  Level Cleveland Center
Fri 07:24:32 AM 41.2583 -78.1275 274° West 428 493 36,000  Level Cleveland Center
Fri 07:25:32 AM 41.2658 -78.2847 274° West 428 493 36,000  Level Cleveland Center
Fri 07:26:32 AM 41.2728 -78.4392 273° West 423 487 36,000  Level Cleveland Center
Fri 07:27:32 AM 41.2781 -78.6158 272° West 423 487 36,000  Level Cleveland Center
Fri 07:28:32 AM 41.2850 -78.7731 273° West 423 487 36,000  Level Cleveland Center
Fri 07:29:32 AM 41.2914 -78.9250 273° West 423 487 36,000  Level Cleveland Center
Fri 07:30:32 AM 41.2956 -79.0797 272° West 423 487 36,000  Level Cleveland Center
Fri 07:31:32 AM 41.2997 -79.2372 272° West 423 487 36,000  Level Cleveland Center
Fri 07:32:32 AM 41.3056 -79.3892 273° West 418 481 36,000  Level Cleveland Center
Fri 07:33:32 AM 41.3111 -79.5436 273° West 418 481 36,000  Level Cleveland Center
Fri 07:34:32 AM 41.3144 -79.7042 272° West 423 487 36,000  Level Cleveland Center
Fri 07:35:32 AM 41.3197 -79.8614 273° West 423 487 36,000  Level Cleveland Center
Fri 07:36:32 AM 41.3250 -80.0136 273° West 418 481 36,000  Level Cleveland Center
Fri 07:37:32 AM 41.3275 -80.1683 271° West 418 481 36,000  Level Cleveland Center
Fri 07:38:32 AM 41.3322 -80.3261 272° West 423 487 36,000  Level Cleveland Center
Fri 07:39:32 AM 41.3344 -80.4808 271° West 423 487 36,000  Level Cleveland Center
Fri 07:40:32 AM 41.3367 -80.6328 271° West 423 487 36,000  Level Cleveland Center
Fri 07:41:32 AM 41.3406 -80.7878 272° West 423 487 36,000  Level Cleveland Center
Fri 07:42:32 AM 41.3422 -80.9456 271° West 423 487 36,000  Level Cleveland Center
Fri 07:43:32 AM 41.3439 -81.1031 271° West 423 487 36,000  Level Cleveland Center
Fri 07:44:32 AM 41.3536 -81.2525 275° West 418 481 36,000  Level Cleveland Center
Fri 07:45:32 AM 41.3922 -81.3969 290° West 418 481 36,000  Level Cleveland Center
Fri 07:46:32 AM 41.4347 -81.5386 292° West 418 481 36,000  Level Cleveland Center
Fri 07:47:32 AM 41.4772 -81.6833 291° West 418 481 36,000  Level Cleveland Center
Fri 07:48:32 AM 41.5156 -81.8256 290° West 411 473 36,000  Level Cleveland Center
Fri 07:49:32 AM 41.5556 -81.9678 291° West 411 473 36,000  Level Cleveland Center
Fri 07:50:32 AM 41.5933 -82.1075 290° West 402 463 36,000  Level Cleveland Center
Fri 07:51:32 AM 41.6331 -82.2500 290° West 402 463 36,000  Level Cleveland Center
Fri 07:52:32 AM 41.6686 -82.3789 290° West 402 463 36,000  Level Cleveland Center
Fri 07:53:32 AM 41.7081 -82.5189 291° West 407 468 36,000  Level Cleveland Center
Fri 07:54:32 AM 41.7453 -82.6592 290° West 407 468 36,000  Level Cleveland Center
Fri 07:55:32 AM 41.7822 -82.7997 289° West 407 468 36,000  Level Cleveland Center
Fri 07:56:32 AM 41.8231 -82.9461 291° West 407 468 36,000  Level Cleveland Center
Fri 07:57:32 AM 41.8597 -83.0839 290° West 407 468 36,000  Level Cleveland Center
Fri 07:58:32 AM 41.8981 -83.2278 290° West 407 468 36,000  Level Cleveland Center
Fri 07:59:32 AM 41.9383 -83.3747 290° West 412 474 36,000  Level Cleveland Center
Fri 08:00:32 AM 41.9764 -83.5300 288° West 407 468 36,000  Level Cleveland Center
Fri 08:01:32 AM 42.0106 -83.6544 290° West 407 468 36,000  Level Cleveland Center
Fri 08:02:32 AM 42.0483 -83.7961 290° West 407 468 36,000  Level Cleveland Center
Fri 08:03:32 AM 42.0878 -83.9522 289° West 407 468 36,000  Level Cleveland Center
Fri 08:04:32 AM 42.1250 -84.0969 289° West 407 468 36,000  Level Cleveland Center
Fri 08:05:32 AM 42.1622 -84.2392 289° West 407 468 36,000  Level Cleveland Center
Fri 08:06:32 AM 42.1994 -84.3786 290° West 407 468 36,000  Level Cleveland Center
Fri 08:07:32 AM 42.2344 -84.5181 289° West 407 468 36,000  Level Cleveland Center
Fri 08:08:03 AM 42.2536 -84.5831 292° West 401 461 36,000  Level Chicago Center
Fri 08:09:04 AM 42.2894 -84.7244 289° West 400 460 36,000  Level Chicago Center
Fri 08:10:06 AM 42.3244 -84.8661 289° West 399 459 36,000  Level Chicago Center
Fri 08:11:08 AM 42.3592 -85.0072 288° West 399 459 36,000  Level Chicago Center
Fri 08:12:10 AM 42.3947 -85.1481 289° West 397 457 36,000  Level Chicago Center
Fri 08:13:12 AM 42.4292 -85.2908 288° West 398 458 36,000  Level Chicago Center
Fri 08:14:14 AM 42.4708 -85.4619 288° West 399 459 36,000  Level Chicago Center
Fri 08:15:16 AM 42.5058 -85.6028 289° West 396 456 36,000  Level Chicago Center
Fri 08:16:18 AM 42.5394 -85.7422 288° West 391 450 36,000  Level Chicago Center
Fri 08:17:20 AM 42.5728 -85.8856 288° West 397 457 36,000  Level Chicago Center
Fri 08:18:22 AM 42.6067 -86.0269 288° West 394 453 36,000  Level Chicago Center
Fri 08:19:23 AM 42.6400 -86.1692 288° West 393 452 36,000  Level Chicago Center
Fri 08:20:25 AM 42.6744 -86.3111 288° West 393 452 36,000  Level Chicago Center
Fri 08:21:27 AM 42.7119 -86.4781 287° West 386 444 36,000  Level Chicago Center
Fri 08:22:29 AM 42.7458 -86.6175 288° West 386 444 36,000  Level Chicago Center
Fri 08:23:31 AM 42.7769 -86.7581 287° West 388 447 36,000  Level Chicago Center
Fri 08:24:33 AM 42.8100 -86.8986 288° West 389 448 36,000  Level Chicago Center
Fri 08:25:35 AM 42.8417 -87.0372 287° West 384 442 36,000  Level Chicago Center
Fri 08:26:37 AM 42.8731 -87.1786 287° West 389 448 36,000  Level Chicago Center
Fri 08:27:39 AM 42.9250 -87.3100 298° West 395 455 36,000  Level Chicago Center
Fri 08:28:41 AM 42.9892 -87.4511 302° West 384 442 36,000  Level Chicago Center
Fri 08:29:43 AM 43.0447 -87.5764 301° West 385 443 36,000  Level Chicago Center
Fri 08:30:45 AM 43.1008 -87.7017 302° West 385 443 36,000  Level Chicago Center
Fri 08:31:47 AM 43.1675 -87.8475 302° West 385 443 36,000  Level Chicago Center
Fri 08:32:49 AM 43.2239 -87.9750 301° West 390 449 36,000  Level Chicago Center
Fri 08:33:51 AM 43.2800 -88.1019 301° West 387 445 36,000  Level Chicago Center
Fri 08:34:52 AM 43.3364 -88.2294 301° West 389 448 36,000  Level Chicago Center
Fri 08:35:54 AM 43.3914 -88.3544 301° West 383 441 36,000  Level Chicago Center
Fri 08:36:56 AM 43.4525 -88.4917 302° West 393 452 36,000  Level Chicago Center
Fri 08:37:58 AM 43.5097 -88.6186 302° West 392 451 36,000  Level Chicago Center
Fri 08:39:00 AM 43.5617 -88.7461 299° West 380 437 36,000  Level Chicago Center
Fri 08:40:02 AM 43.6169 -88.8731 301° West 384 442 36,000  Level Chicago Center
Fri 08:41:03 AM 43.6711 -89.0011 300° West 386 444 36,000  Level Chicago Center
Fri 08:42:05 AM 43.7353 -89.1489 301° West 384 442 36,000  Level Chicago Center
Fri 08:43:07 AM 43.7883 -89.2772 300° West 382 440 36,000  Level Chicago Center
Fri 08:44:09 AM 43.8431 -89.4047 301° West 384 442 36,000  Level Chicago Center
Fri 08:45:10 AM 43.8956 -89.5314 300° West 381 438 36,000  Level Chicago Center
Fri 08:46:12 AM 43.9486 -89.6589 300° West 380 437 36,000 -339 Level Chicago Center
Fri 08:47:14 AM 44.0031 -89.7844 301° West 379 436 35,300 -919 Descending Chicago Center
Fri 08:48:16 AM 44.0664 -89.9356 300° West 386 444 34,100 -634 Descending Chicago Center
Fri 08:49:17 AM 44.1292 -90.0606 305° West 391 450 34,000 -44 Descending Chicago Center
Fri 08:50:31 AM 44.2086 -90.2022 308° West 395 455 34,000  Level Minneapolis Center
Fri 08:51:33 AM 44.2761 -90.3236 308° West 398 458 34,000  Level Minneapolis Center
Fri 08:52:34 AM 44.3325 -90.4558 301° West 398 458 34,000  Level Minneapolis Center
Fri 08:53:36 AM 44.3958 -90.6114 300° West 395 455 34,000  Level Minneapolis Center
Fri 08:54:38 AM 44.4497 -90.7461 299° West 396 456 34,000  Level Minneapolis Center
Fri 08:55:40 AM 44.5022 -90.8819 298° West 395 455 34,000  Level Minneapolis Center
Fri 08:56:41 AM 44.5589 -91.0194 300° West 394 453 34,000 -293 Level Minneapolis Center
Fri 08:57:43 AM 44.6108 -91.1547 298° West 396 456 33,400 -1,548 Descending Minneapolis Center
Fri 08:58:45 AM 44.6644 -91.2883 299° West 396 456 30,800 -2,382 Descending Minneapolis Center
Fri 08:59:59 AM 44.7172 -91.4256 298° West 398 458 28,000 -2,779 Descending Minneapolis Center
Fri 09:01:01 AM 44.7856 -91.5997 299° West 418 481 24,500 -3,366 Descending Minneapolis Center
Fri 09:02:02 AM 44.8517 -91.7700 299° West 419 482 21,100 -2,683 Descending Minneapolis Center
Fri 09:03:04 AM 44.8911 -91.8769 298° West 399 459 19,000 -2,516 Descending Minneapolis Center
Fri 09:04:06 AM 44.9497 -92.0264 299° West 366 421 15,900 -2,661 Descending Minneapolis Center
Fri 09:05:08 AM 44.9958 -92.1486 298° West 354 407 13,500 -2,341 Descending Minneapolis Center
Fri 09:06:09 AM 45.0389 -92.2669 297° West 343 395 11,100 -1,220 Descending Minneapolis Center
Fri 09:07:11 AM 45.0317 -92.3997 266° West 344 396 11,000 -581 Descending Minneapolis Center
Fri 09:08:13 AM 44.9786 -92.5203 238° Southwest 299 344 9,900 -1,171 Descending Minneapolis Center
Fri 09:09:14 AM 44.9325 -92.6114 234° Southwest 288 331 8,600 -1,268 Descending Minneapolis Center
Fri 09:10:16 AM 44.8878 -92.7011 235° Southwest 281 323 7,300 -1,161 Descending Minneapolis Center
Fri 09:11:18 AM 44.8444 -92.7878 235° Southwest 273 314 6,200 -1,355 Descending Minneapolis Center
Fri 09:12:20 AM 44.8014 -92.8728 234° Southwest 268 308 4,500 -1,073 Descending Minneapolis Center
Fri 09:13:21 AM 44.7947 -92.9633 264° West 226 260 4,000 -439 Descending Minneapolis Center
Fri 09:14:23 AM 44.8069 -93.0219 286° West 157 181 3,600 -387 Descending Minneapolis Center

Login

Don't have an account? Register now (free) for customized features, flight alerts, and more!